sensor_id;sensor_type;location;lat;lon;timestamp;pressure;altitude;pressure_sealevel;temperature;humidity
20628;BME280;10473;42.734;24.258;2023-08-06T00:02:03;90844.94;;;23.17;56.39
20628;BME280;10473;42.734;24.258;2023-08-06T00:04:31;90846.25;;;23.21;56.06
20628;BME280;10473;42.734;24.258;2023-08-06T00:06:59;90859.84;;;23.27;55.90
20628;BME280;10473;42.734;24.258;2023-08-06T00:09:26;90852.00;;;23.29;56.18
20628;BME280;10473;42.734;24.258;2023-08-06T00:11:54;90851.47;;;23.25;56.51
20628;BME280;10473;42.734;24.258;2023-08-06T00:14:22;90854.81;;;23.34;56.48
20628;BME280;10473;42.734;24.258;2023-08-06T00:16:51;90852.19;;;23.40;56.20
20628;BME280;10473;42.734;24.258;2023-08-06T00:19:18;90861.88;;;23.46;56.09
20628;BME280;10473;42.734;24.258;2023-08-06T00:21:46;90860.19;;;23.49;55.74
20628;BME280;10473;42.734;24.258;2023-08-06T00:24:14;90854.38;;;23.56;55.42
20628;BME280;10473;42.734;24.258;2023-08-06T00:26:41;90854.19;;;23.59;55.33
20628;BME280;10473;42.734;24.258;2023-08-06T00:29:09;90860.13;;;23.63;55.08
20628;BME280;10473;42.734;24.258;2023-08-06T00:31:37;90860.88;;;23.64;55.33
20628;BME280;10473;42.734;24.258;2023-08-06T00:34:06;90863.31;;;23.62;55.60
20628;BME280;10473;42.734;24.258;2023-08-06T00:36:33;90860.63;;;23.62;55.84
20628;BME280;10473;42.734;24.258;2023-08-06T00:39:01;90861.28;;;23.57;56.22
20628;BME280;10473;42.734;24.258;2023-08-06T00:41:29;90861.81;;;23.12;58.37
20628;BME280;10473;42.734;24.258;2023-08-06T00:43:57;90872.88;;;23.14;58.57
20628;BME280;10473;42.734;24.258;2023-08-06T00:46:25;90874.56;;;23.26;57.83
20628;BME280;10473;42.734;24.258;2023-08-06T00:48:54;90879.16;;;23.20;57.00
20628;BME280;10473;42.734;24.258;2023-08-06T00:51:24;90856.59;;;22.94;58.25
20628;BME280;10473;42.734;24.258;2023-08-06T00:53:52;90847.00;;;22.93;57.78
20628;BME280;10473;42.734;24.258;2023-08-06T00:56:20;90845.50;;;22.77;58.07
20628;BME280;10473;42.734;24.258;2023-08-06T00:58:48;90827.78;;;22.47;59.85
20628;BME280;10473;42.734;24.258;2023-08-06T01:01:16;90810.31;;;22.19;60.82
20628;BME280;10473;42.734;24.258;2023-08-06T01:03:43;90797.72;;;22.02;61.03
20628;BME280;10473;42.734;24.258;2023-08-06T01:06:12;90779.69;;;21.70;61.90
20628;BME280;10473;42.734;24.258;2023-08-06T01:08:48;90786.03;;;21.58;62.50
20628;BME280;10473;42.734;24.258;2023-08-06T01:11:25;90783.63;;;21.60;62.60
20628;BME280;10473;42.734;24.258;2023-08-06T01:13:59;90772.78;;;21.45;63.24
20628;BME280;10473;42.734;24.258;2023-08-06T01:16:30;90757.22;;;21.64;62.23
20628;BME280;10473;42.734;24.258;2023-08-06T01:18:58;90765.84;;;21.77;61.84
20628;BME280;10473;42.734;24.258;2023-08-06T01:21:27;90774.63;;;21.86;61.46
20628;BME280;10473;42.734;24.258;2023-08-06T01:23:55;90758.53;;;21.92;61.19
20628;BME280;10473;42.734;24.258;2023-08-06T01:26:28;90754.88;;;21.80;61.43
20628;BME280;10473;42.734;24.258;2023-08-06T01:29:03;90764.69;;;21.69;62.18
20628;BME280;10473;42.734;24.258;2023-08-06T01:31:37;90760.81;;;21.70;61.81
20628;BME280;10473;42.734;24.258;2023-08-06T01:34:09;90766.53;;;21.63;62.36
20628;BME280;10473;42.734;24.258;2023-08-06T01:36:40;90752.72;;;21.70;61.60
20628;BME280;10473;42.734;24.258;2023-08-06T01:39:08;90756.75;;;21.65;61.87
20628;BME280;10473;42.734;24.258;2023-08-06T01:41:36;90751.38;;;21.65;61.20
20628;BME280;10473;42.734;24.258;2023-08-06T01:44:04;90753.28;;;21.50;62.09
20628;BME280;10473;42.734;24.258;2023-08-06T01:46:32;90760.28;;;21.57;61.57
20628;BME280;10473;42.734;24.258;2023-08-06T01:48:59;90775.03;;;21.70;61.47
20628;BME280;10473;42.734;24.258;2023-08-06T01:51:27;90780.19;;;21.83;60.53
20628;BME280;10473;42.734;24.258;2023-08-06T01:53:56;90802.06;;;21.85;60.83
20628;BME280;10473;42.734;24.258;2023-08-06T01:56:24;90789.16;;;21.89;60.70
20628;BME280;10473;42.734;24.258;2023-08-06T01:58:51;90754.81;;;21.89;60.87
20628;BME280;10473;42.734;24.258;2023-08-06T02:01:19;90725.59;;;21.88;60.97
20628;BME280;10473;42.734;24.258;2023-08-06T02:03:47;90709.41;;;21.88;60.90
20628;BME280;10473;42.734;24.258;2023-08-06T02:06:14;90741.41;;;21.57;62.00
20628;BME280;10473;42.734;24.258;2023-08-06T02:08:42;90747.31;;;20.99;64.31
20628;BME280;10473;42.734;24.258;2023-08-06T02:11:13;90737.00;;;20.89;65.23
20628;BME280;10473;42.734;24.258;2023-08-06T02:13:40;90746.00;;;20.86;65.68
20628;BME280;10473;42.734;24.258;2023-08-06T02:16:09;90750.50;;;20.80;66.01
20628;BME280;10473;42.734;24.258;2023-08-06T02:18:37;90757.00;;;21.06;64.85
20628;BME280;10473;42.734;24.258;2023-08-06T02:21:05;90737.56;;;21.25;64.21
20628;BME280;10473;42.734;24.258;2023-08-06T02:23:32;90752.47;;;21.35;64.37
20628;BME280;10473;42.734;24.258;2023-08-06T02:26:01;90742.94;;;21.49;64.14
20628;BME280;10473;42.734;24.258;2023-08-06T02:28:30;90736.66;;;21.52;64.35
20628;BME280;10473;42.734;24.258;2023-08-06T02:30:58;90742.56;;;21.65;64.93
20628;BME280;10473;42.734;24.258;2023-08-06T02:33:26;90746.28;;;21.67;64.73
20628;BME280;10473;42.734;24.258;2023-08-06T02:35:59;90739.34;;;21.52;65.33
20628;BME280;10473;42.734;24.258;2023-08-06T02:38:27;90726.94;;;21.69;64.17
20628;BME280;10473;42.734;24.258;2023-08-06T02:40:56;90728.56;;;21.52;64.59
20628;BME280;10473;42.734;24.258;2023-08-06T02:43:24;90738.19;;;21.67;64.63
20628;BME280;10473;42.734;24.258;2023-08-06T02:45:56;90754.44;;;21.58;66.23
20628;BME280;10473;42.734;24.258;2023-08-06T02:48:24;90812.00;;;21.79;65.61
20628;BME280;10473;42.734;24.258;2023-08-06T02:50:57;90780.31;;;22.03;66.14
20628;BME280;10473;42.734;24.258;2023-08-06T02:53:26;90760.50;;;22.06;67.39
20628;BME280;10473;42.734;24.258;2023-08-06T02:55:53;90736.78;;;22.10;68.33
20628;BME280;10473;42.734;24.258;2023-08-06T02:58:26;90730.19;;;22.11;68.71
20628;BME280;10473;42.734;24.258;2023-08-06T03:01:07;90734.25;;;21.77;70.33
20628;BME280;10473;42.734;24.258;2023-08-06T03:03:47;90727.81;;;21.04;73.76
20628;BME280;10473;42.734;24.258;2023-08-06T03:06:21;90721.09;;;21.00;73.35
20628;BME280;10473;42.734;24.258;2023-08-06T03:08:52;90732.94;;;21.26;72.86
20628;BME280;10473;42.734;24.258;2023-08-06T03:11:20;90751.13;;;21.40;72.45
20628;BME280;10473;42.734;24.258;2023-08-06T03:14:09;90763.03;;;21.48;70.97
20628;BME280;10473;42.734;24.258;2023-08-06T03:16:46;90774.13;;;21.50;72.27
20628;BME280;10473;42.734;24.258;2023-08-06T03:19:16;90780.88;;;21.45;70.32
20628;BME280;10473;42.734;24.258;2023-08-06T03:21:44;90780.00;;;21.39;70.74
20628;BME280;10473;42.734;24.258;2023-08-06T03:24:14;90770.13;;;21.36;70.94
20628;BME280;10473;42.734;24.258;2023-08-06T03:26:43;90756.56;;;21.31;71.64
20628;BME280;10473;42.734;24.258;2023-08-06T03:29:11;90747.09;;;21.12;72.82
20628;BME280;10473;42.734;24.258;2023-08-06T03:31:40;90721.69;;;21.04;73.30
20628;BME280;10473;42.734;24.258;2023-08-06T03:34:10;90714.31;;;20.81;73.00
20628;BME280;10473;42.734;24.258;2023-08-06T03:36:38;90712.47;;;20.87;72.98
20628;BME280;10473;42.734;24.258;2023-08-06T03:39:07;90697.16;;;21.02;73.15
20628;BME280;10473;42.734;24.258;2023-08-06T03:41:34;90712.25;;;21.08;73.74
20628;BME280;10473;42.734;24.258;2023-08-06T03:44:02;90711.88;;;21.15;73.83
20628;BME280;10473;42.734;24.258;2023-08-06T03:46:30;90720.69;;;21.25;74.45
20628;BME280;10473;42.734;24.258;2023-08-06T03:49:01;90717.69;;;21.23;74.47
20628;BME280;10473;42.734;24.258;2023-08-06T03:51:31;90716.59;;;21.29;75.56
20628;BME280;10473;42.734;24.258;2023-08-06T03:54:00;90738.16;;;21.29;75.88
20628;BME280;10473;42.734;24.258;2023-08-06T03:56:28;90734.44;;;21.27;73.75
20628;BME280;10473;42.734;24.258;2023-08-06T03:58:55;90745.34;;;21.32;73.89
20628;BME280;10473;42.734;24.258;2023-08-06T04:01:24;90746.25;;;21.29;73.41
20628;BME280;10473;42.734;24.258;2023-08-06T04:03:53;90747.63;;;21.25;73.46
20628;BME280;10473;42.734;24.258;2023-08-06T04:06:20;90741.31;;;21.28;72.31
20628;BME280;10473;42.734;24.258;2023-08-06T04:08:49;90725.31;;;21.24;73.07
20628;BME280;10473;42.734;24.258;2023-08-06T04:11:17;90727.88;;;21.19;73.81
20628;BME280;10473;42.734;24.258;2023-08-06T04:13:45;90728.41;;;21.08;73.53
20628;BME280;10473;42.734;24.258;2023-08-06T04:16:12;90734.63;;;20.91;75.15
20628;BME280;10473;42.734;24.258;2023-08-06T04:18:41;90749.28;;;20.90;75.40
20628;BME280;10473;42.734;24.258;2023-08-06T04:21:08;90763.88;;;21.07;74.62
20628;BME280;10473;42.734;24.258;2023-08-06T04:23:36;90757.88;;;21.12;74.09
20628;BME280;10473;42.734;24.258;2023-08-06T04:26:08;90771.78;;;21.10;74.56
20628;BME280;10473;42.734;24.258;2023-08-06T04:28:37;90767.66;;;21.00;73.57
20628;BME280;10473;42.734;24.258;2023-08-06T04:31:05;90772.91;;;20.95;74.02
20628;BME280;10473;42.734;24.258;2023-08-06T04:33:34;90760.38;;;20.83;74.60
20628;BME280;10473;42.734;24.258;2023-08-06T04:36:08;90749.75;;;20.47;76.15
20628;BME280;10473;42.734;24.258;2023-08-06T04:38:36;90750.72;;;20.17;77.08
20628;BME280;10473;42.734;24.258;2023-08-06T04:41:04;90754.34;;;19.78;79.39
20628;BME280;10473;42.734;24.258;2023-08-06T04:43:35;90753.13;;;19.52;80.86
20628;BME280;10473;42.734;24.258;2023-08-06T04:46:02;90751.63;;;19.33;81.36
20628;BME280;10473;42.734;24.258;2023-08-06T04:48:30;90754.78;;;19.40;81.61
20628;BME280;10473;42.734;24.258;2023-08-06T04:50:58;90769.69;;;19.59;80.51
20628;BME280;10473;42.734;24.258;2023-08-06T04:53:26;90768.34;;;19.82;79.02
20628;BME280;10473;42.734;24.258;2023-08-06T04:55:53;90764.78;;;19.85;78.45
20628;BME280;10473;42.734;24.258;2023-08-06T04:58:21;90787.47;;;19.93;78.81
20628;BME280;10473;42.734;24.258;2023-08-06T05:00:50;90777.19;;;19.91;79.06
20628;BME280;10473;42.734;24.258;2023-08-06T05:03:18;90787.63;;;19.98;79.09
20628;BME280;10473;42.734;24.258;2023-08-06T05:05:46;90777.91;;;20.01;78.86
20628;BME280;10473;42.734;24.258;2023-08-06T05:08:14;90755.06;;;19.96;79.26
20628;BME280;10473;42.734;24.258;2023-08-06T05:10:43;90755.38;;;19.89;79.52
20628;BME280;10473;42.734;24.258;2023-08-06T05:13:12;90728.38;;;19.48;81.44
20628;BME280;10473;42.734;24.258;2023-08-06T05:15:40;90702.47;;;18.96;83.42
20628;BME280;10473;42.734;24.258;2023-08-06T05:18:10;90652.47;;;18.23;86.52
20628;BME280;10473;42.734;24.258;2023-08-06T05:20:39;90694.19;;;18.55;87.97
20628;BME280;10473;42.734;24.258;2023-08-06T05:23:07;90685.56;;;18.29;88.58
20628;BME280;10473;42.734;24.258;2023-08-06T05:25:35;90746.94;;;18.58;88.55
20628;BME280;10473;42.734;24.258;2023-08-06T05:28:03;90769.03;;;18.62;88.52
20628;BME280;10473;42.734;24.258;2023-08-06T05:33:08;90803.13;;;18.92;86.82
20628;BME280;10473;42.734;24.258;2023-08-06T05:35:37;90790.59;;;18.98;86.88
20628;BME280;10473;42.734;24.258;2023-08-06T05:38:04;90776.59;;;19.03;86.89
20628;BME280;10473;42.734;24.258;2023-08-06T05:40:33;90746.06;;;18.61;87.59
20628;BME280;10473;42.734;24.258;2023-08-06T05:43:01;90741.53;;;18.40;88.98
20628;BME280;10473;42.734;24.258;2023-08-06T05:45:29;90776.72;;;17.99;91.06
20628;BME280;10473;42.734;24.258;2023-08-06T05:47:56;90813.97;;;17.63;94.29
20628;BME280;10473;42.734;24.258;2023-08-06T05:50:25;90825.50;;;17.26;97.34
20628;BME280;10473;42.734;24.258;2023-08-06T05:52:54;90793.16;;;17.33;98.69
20628;BME280;10473;42.734;24.258;2023-08-06T05:55:21;90752.66;;;17.65;98.16
20628;BME280;10473;42.734;24.258;2023-08-06T05:57:49;90731.28;;;17.74;96.90
20628;BME280;10473;42.734;24.258;2023-08-06T06:00:19;90774.09;;;17.65;95.95
20628;BME280;10473;42.734;24.258;2023-08-06T06:02:47;90773.28;;;17.55;97.57
20628;BME280;10473;42.734;24.258;2023-08-06T06:05:14;90770.16;;;17.23;98.39
20628;BME280;10473;42.734;24.258;2023-08-06T06:07:42;90771.88;;;17.17;98.58
20628;BME280;10473;42.734;24.258;2023-08-06T06:10:11;90773.38;;;17.18;99.14
20628;BME280;10473;42.734;24.258;2023-08-06T06:12:40;90768.53;;;17.25;99.31
20628;BME280;10473;42.734;24.258;2023-08-06T06:15:09;90756.22;;;17.28;100.00
20628;BME280;10473;42.734;24.258;2023-08-06T06:17:37;90757.41;;;17.61;99.81
20628;BME280;10473;42.734;24.258;2023-08-06T06:20:06;90769.63;;;17.83;98.41
20628;BME280;10473;42.734;24.258;2023-08-06T06:22:34;90743.41;;;17.87;96.72
20628;BME280;10473;42.734;24.258;2023-08-06T06:25:05;90764.34;;;18.23;94.67
20628;BME280;10473;42.734;24.258;2023-08-06T06:27:35;90754.78;;;18.43;92.94
20628;BME280;10473;42.734;24.258;2023-08-06T06:30:05;90739.44;;;18.44;92.45
20628;BME280;10473;42.734;24.258;2023-08-06T06:32:33;90754.69;;;18.56;91.90
20628;BME280;10473;42.734;24.258;2023-08-06T06:35:01;90756.03;;;18.60;91.58
20628;BME280;10473;42.734;24.258;2023-08-06T06:37:29;90764.81;;;18.52;91.32
20628;BME280;10473;42.734;24.258;2023-08-06T06:39:57;90770.44;;;18.45;91.51
20628;BME280;10473;42.734;24.258;2023-08-06T06:42:25;90777.66;;;18.57;90.58
20628;BME280;10473;42.734;24.258;2023-08-06T06:45:00;90794.84;;;18.68;90.54
20628;BME280;10473;42.734;24.258;2023-08-06T06:47:28;90803.91;;;19.01;89.50
20628;BME280;10473;42.734;24.258;2023-08-06T06:49:56;90791.53;;;19.13;88.82
20628;BME280;10473;42.734;24.258;2023-08-06T06:52:23;90801.63;;;19.30;87.04
20628;BME280;10473;42.734;24.258;2023-08-06T06:54:51;90796.28;;;19.48;85.32
20628;BME280;10473;42.734;24.258;2023-08-06T06:57:19;90789.72;;;19.58;84.41
20628;BME280;10473;42.734;24.258;2023-08-06T06:59:46;90805.69;;;19.80;84.47
20628;BME280;10473;42.734;24.258;2023-08-06T07:02:15;90801.06;;;19.98;83.28
20628;BME280;10473;42.734;24.258;2023-08-06T07:04:43;90806.31;;;20.20;82.62
20628;BME280;10473;42.734;24.258;2023-08-06T07:07:11;90812.25;;;20.42;82.13
20628;BME280;10473;42.734;24.258;2023-08-06T07:09:38;90810.34;;;20.75;84.23
20628;BME280;10473;42.734;24.258;2023-08-06T07:12:07;90814.47;;;21.03;79.89
20628;BME280;10473;42.734;24.258;2023-08-06T07:14:34;90817.06;;;21.30;78.41
20628;BME280;10473;42.734;24.258;2023-08-06T07:17:02;90804.53;;;21.18;74.04
20628;BME280;10473;42.734;24.258;2023-08-06T07:19:31;90807.47;;;21.29;72.34
20628;BME280;10473;42.734;24.258;2023-08-06T07:21:59;90821.75;;;21.44;73.10
20628;BME280;10473;42.734;24.258;2023-08-06T07:24:27;90809.78;;;21.45;71.67
20628;BME280;10473;42.734;24.258;2023-08-06T07:26:54;90805.31;;;21.42;72.59
20628;BME280;10473;42.734;24.258;2023-08-06T07:29:22;90805.31;;;21.42;71.94
20628;BME280;10473;42.734;24.258;2023-08-06T07:31:50;90799.81;;;21.60;73.08
20628;BME280;10473;42.734;24.258;2023-08-06T07:34:18;90802.31;;;21.63;71.10
20628;BME280;10473;42.734;24.258;2023-08-06T07:36:47;90803.69;;;21.59;72.55
20628;BME280;10473;42.734;24.258;2023-08-06T07:39:15;90818.50;;;21.87;72.21
20628;BME280;10473;42.734;24.258;2023-08-06T07:41:43;90825.34;;;21.97;71.05
20628;BME280;10473;42.734;24.258;2023-08-06T07:44:12;90839.13;;;21.99;71.01
20628;BME280;10473;42.734;24.258;2023-08-06T07:46:39;90845.44;;;21.96;71.31
20628;BME280;10473;42.734;24.258;2023-08-06T07:49:09;90845.56;;;22.01;71.64
20628;BME280;10473;42.734;24.258;2023-08-06T07:51:37;90844.34;;;22.02;72.76
20628;BME280;10473;42.734;24.258;2023-08-06T07:54:07;90847.50;;;22.01;73.30
20628;BME280;10473;42.734;24.258;2023-08-06T07:56:35;90836.06;;;22.06;74.22
20628;BME280;10473;42.734;24.258;2023-08-06T07:59:03;90841.09;;;22.13;74.25
20628;BME280;10473;42.734;24.258;2023-08-06T08:01:31;90847.63;;;22.21;74.10
20628;BME280;10473;42.734;24.258;2023-08-06T08:03:58;90845.22;;;22.23;72.23
20628;BME280;10473;42.734;24.258;2023-08-06T08:06:26;90854.53;;;22.22;71.70
20628;BME280;10473;42.734;24.258;2023-08-06T08:08:54;90856.66;;;22.18;71.11
20628;BME280;10473;42.734;24.258;2023-08-06T08:11:23;90844.09;;;22.15;72.60
20628;BME280;10473;42.734;24.258;2023-08-06T08:13:51;90838.13;;;22.11;73.23
20628;BME280;10473;42.734;24.258;2023-08-06T08:16:19;90834.97;;;22.12;73.20
20628;BME280;10473;42.734;24.258;2023-08-06T08:18:46;90830.47;;;22.09;73.30
20628;BME280;10473;42.734;24.258;2023-08-06T08:21:14;90829.06;;;21.99;74.12
20628;BME280;10473;42.734;24.258;2023-08-06T08:23:41;90837.13;;;21.85;75.29
20628;BME280;10473;42.734;24.258;2023-08-06T08:26:10;90850.09;;;21.72;75.39
20628;BME280;10473;42.734;24.258;2023-08-06T08:28:39;90842.19;;;21.59;76.98
20628;BME280;10473;42.734;24.258;2023-08-06T08:31:08;90831.19;;;21.48;76.77
20628;BME280;10473;42.734;24.258;2023-08-06T08:33:42;90811.44;;;21.42;76.39
20628;BME280;10473;42.734;24.258;2023-08-06T08:36:13;90824.59;;;21.73;77.58
20628;BME280;10473;42.734;24.258;2023-08-06T08:38:41;90830.69;;;21.82;75.65
20628;BME280;10473;42.734;24.258;2023-08-06T08:41:10;90831.19;;;21.95;74.25
20628;BME280;10473;42.734;24.258;2023-08-06T08:43:40;90812.50;;;22.44;74.16
20628;BME280;10473;42.734;24.258;2023-08-06T08:46:12;90815.59;;;22.81;71.09
20628;BME280;10473;42.734;24.258;2023-08-06T08:48:47;90815.66;;;23.15;71.59
20628;BME280;10473;42.734;24.258;2023-08-06T08:51:16;90804.59;;;23.48;71.67
20628;BME280;10473;42.734;24.258;2023-08-06T08:53:45;90808.59;;;23.72;69.68
20628;BME280;10473;42.734;24.258;2023-08-06T08:56:14;90795.53;;;23.51;69.05
20628;BME280;10473;42.734;24.258;2023-08-06T08:58:44;90792.00;;;23.45;67.42
20628;BME280;10473;42.734;24.258;2023-08-06T09:01:12;90797.84;;;23.58;68.23
20628;BME280;10473;42.734;24.258;2023-08-06T09:03:41;90797.72;;;23.67;67.69
20628;BME280;10473;42.734;24.258;2023-08-06T09:06:12;90797.72;;;23.67;68.15
20628;BME280;10473;42.734;24.258;2023-08-06T09:08:48;90798.19;;;23.65;68.93
20628;BME280;10473;42.734;24.258;2023-08-06T09:11:18;90796.31;;;23.71;69.64
20628;BME280;10473;42.734;24.258;2023-08-06T09:13:49;90787.41;;;23.51;69.95
20628;BME280;10473;42.734;24.258;2023-08-06T09:16:18;90797.31;;;23.74;70.21
20628;BME280;10473;42.734;24.258;2023-08-06T09:18:46;90801.81;;;23.97;70.94
20628;BME280;10473;42.734;24.258;2023-08-06T09:21:14;90793.97;;;23.99;69.76
20628;BME280;10473;42.734;24.258;2023-08-06T09:23:43;90805.56;;;24.25;69.23
20628;BME280;10473;42.734;24.258;2023-08-06T09:26:11;90800.66;;;24.49;68.69
20628;BME280;10473;42.734;24.258;2023-08-06T09:28:40;90796.94;;;24.21;66.46
20628;BME280;10473;42.734;24.258;2023-08-06T09:31:10;90804.78;;;24.19;67.36
20628;BME280;10473;42.734;24.258;2023-08-06T09:33:38;90803.38;;;24.03;67.65
20628;BME280;10473;42.734;24.258;2023-08-06T09:36:09;90803.53;;;24.40;71.39
20628;BME280;10473;42.734;24.258;2023-08-06T09:38:38;90801.00;;;24.11;68.10
20628;BME280;10473;42.734;24.258;2023-08-06T09:41:06;90802.16;;;24.04;68.47
20628;BME280;10473;42.734;24.258;2023-08-06T09:43:41;90790.88;;;24.31;69.32
20628;BME280;10473;42.734;24.258;2023-08-06T09:46:13;90781.56;;;24.12;68.47
20628;BME280;10473;42.734;24.258;2023-08-06T09:48:45;90786.16;;;24.52;69.58
20628;BME280;10473;42.734;24.258;2023-08-06T09:51:13;90791.81;;;24.48;68.87
20628;BME280;10473;42.734;24.258;2023-08-06T09:53:42;90797.41;;;24.65;67.26
20628;BME280;10473;42.734;24.258;2023-08-06T09:56:10;90798.34;;;24.62;66.12
20628;BME280;10473;42.734;24.258;2023-08-06T09:58:40;90801.31;;;24.64;65.55
20628;BME280;10473;42.734;24.258;2023-08-06T10:01:08;90808.34;;;24.76;65.62
20628;BME280;10473;42.734;24.258;2023-08-06T10:03:40;90812.22;;;24.69;63.52
20628;BME280;10473;42.734;24.258;2023-08-06T10:06:09;90799.59;;;24.61;63.81
20628;BME280;10473;42.734;24.258;2023-08-06T10:08:38;90803.78;;;24.42;65.13
20628;BME280;10473;42.734;24.258;2023-08-06T10:11:07;90802.31;;;24.66;64.25
20628;BME280;10473;42.734;24.258;2023-08-06T10:13:37;90806.88;;;24.09;62.54
20628;BME280;10473;42.734;24.258;2023-08-06T10:16:06;90799.78;;;23.92;60.80
20628;BME280;10473;42.734;24.258;2023-08-06T10:18:35;90805.44;;;24.14;60.09
20628;BME280;10473;42.734;24.258;2023-08-06T10:21:08;90793.91;;;24.39;61.70
20628;BME280;10473;42.734;24.258;2023-08-06T10:23:37;90796.22;;;24.46;61.51
20628;BME280;10473;42.734;24.258;2023-08-06T10:26:08;90794.28;;;24.52;61.44
20628;BME280;10473;42.734;24.258;2023-08-06T10:28:36;90795.31;;;24.80;60.95
20628;BME280;10473;42.734;24.258;2023-08-06T10:31:05;90787.13;;;25.00;62.36
20628;BME280;10473;42.734;24.258;2023-08-06T10:33:44;90774.41;;;25.17;62.80
20628;BME280;10473;42.734;24.258;2023-08-06T10:36:13;90775.38;;;25.45;56.82
20628;BME280;10473;42.734;24.258;2023-08-06T10:38:45;90778.19;;;25.67;51.81
20628;BME280;10473;42.734;24.258;2023-08-06T10:41:21;90780.03;;;25.87;52.30
20628;BME280;10473;42.734;24.258;2023-08-06T10:43:50;90781.13;;;26.11;53.60
20628;BME280;10473;42.734;24.258;2023-08-06T10:46:27;90780.44;;;26.22;54.43
20628;BME280;10473;42.734;24.258;2023-08-06T10:48:55;90774.56;;;26.34;52.64
20628;BME280;10473;42.734;24.258;2023-08-06T10:51:24;90782.75;;;26.51;52.35
20628;BME280;10473;42.734;24.258;2023-08-06T10:53:51;90774.88;;;26.58;52.84
20628;BME280;10473;42.734;24.258;2023-08-06T10:56:20;90775.38;;;26.57;50.13
20628;BME280;10473;42.734;24.258;2023-08-06T10:58:50;90780.59;;;26.66;50.89
20628;BME280;10473;42.734;24.258;2023-08-06T11:01:18;90780.34;;;26.69;50.39
20628;BME280;10473;42.734;24.258;2023-08-06T11:03:46;90788.00;;;26.65;49.87
20628;BME280;10473;42.734;24.258;2023-08-06T11:06:17;90781.56;;;26.57;49.78
20628;BME280;10473;42.734;24.258;2023-08-06T11:08:49;90797.34;;;26.53;50.78
20628;BME280;10473;42.734;24.258;2023-08-06T11:11:18;90801.03;;;26.50;49.74
20628;BME280;10473;42.734;24.258;2023-08-06T11:13:47;90808.75;;;26.57;51.63
20628;BME280;10473;42.734;24.258;2023-08-06T11:16:15;90801.09;;;26.72;51.11
20628;BME280;10473;42.734;24.258;2023-08-06T11:18:45;90803.56;;;26.81;50.37
20628;BME280;10473;42.734;24.258;2023-08-06T11:21:13;90796.94;;;26.93;47.67
20628;BME280;10473;42.734;24.258;2023-08-06T11:23:41;90795.44;;;26.92;47.76
20628;BME280;10473;42.734;24.258;2023-08-06T11:26:10;90795.94;;;26.91;48.73
20628;BME280;10473;42.734;24.258;2023-08-06T11:28:38;90799.88;;;26.95;48.36
20628;BME280;10473;42.734;24.258;2023-08-06T11:31:18;90801.88;;;27.00;48.39
20628;BME280;10473;42.734;24.258;2023-08-06T11:33:46;90797.94;;;27.12;48.88
20628;BME280;10473;42.734;24.258;2023-08-06T11:36:15;90794.47;;;27.17;45.11
20628;BME280;10473;42.734;24.258;2023-08-06T11:38:42;90797.69;;;27.27;47.36
20628;BME280;10473;42.734;24.258;2023-08-06T11:41:12;90783.13;;;27.30;48.08
20628;BME280;10473;42.734;24.258;2023-08-06T11:43:39;90789.03;;;27.39;45.39
20628;BME280;10473;42.734;24.258;2023-08-06T11:46:07;90790.53;;;27.51;47.69
20628;BME280;10473;42.734;24.258;2023-08-06T11:48:50;90805.59;;;27.58;43.92
20628;BME280;10473;42.734;24.258;2023-08-06T11:51:18;90803.34;;;27.67;46.03
20628;BME280;10473;42.734;24.258;2023-08-06T11:53:48;90811.53;;;27.67;43.92
20628;BME280;10473;42.734;24.258;2023-08-06T11:56:19;90818.72;;;27.70;42.65
20628;BME280;10473;42.734;24.258;2023-08-06T11:58:47;90823.63;;;27.77;43.31
20628;BME280;10473;42.734;24.258;2023-08-06T12:01:15;90818.72;;;27.81;42.97
20628;BME280;10473;42.734;24.258;2023-08-06T12:03:42;90820.19;;;27.82;42.65
20628;BME280;10473;42.734;24.258;2023-08-06T12:06:10;90825.63;;;27.82;42.08
20628;BME280;10473;42.734;24.258;2023-08-06T12:08:38;90821.41;;;27.92;44.85
20628;BME280;10473;42.734;24.258;2023-08-06T12:11:08;90822.88;;;27.93;44.93
20628;BME280;10473;42.734;24.258;2023-08-06T12:13:37;90826.88;;;27.81;41.93
20628;BME280;10473;42.734;24.258;2023-08-06T12:16:06;90830.06;;;27.74;42.70
20628;BME280;10473;42.734;24.258;2023-08-06T12:18:33;90819.94;;;27.75;44.36
20628;BME280;10473;42.734;24.258;2023-08-06T12:21:01;90827.09;;;27.72;42.57
20628;BME280;10473;42.734;24.258;2023-08-06T12:23:29;90819.97;;;27.53;43.05
20628;BME280;10473;42.734;24.258;2023-08-06T12:26:01;90830.88;;;27.36;43.97
20628;BME280;10473;42.734;24.258;2023-08-06T12:28:28;90826.91;;;27.26;44.82
20628;BME280;10473;42.734;24.258;2023-08-06T12:30:57;90821.41;;;27.15;45.50
20628;BME280;10473;42.734;24.258;2023-08-06T12:33:26;90819.72;;;27.23;45.89
20628;BME280;10473;42.734;24.258;2023-08-06T12:35:54;90824.66;;;27.30;45.57
20628;BME280;10473;42.734;24.258;2023-08-06T12:38:23;90825.66;;;27.38;46.70
20628;BME280;10473;42.734;24.258;2023-08-06T12:40:51;90823.66;;;27.44;47.85
20628;BME280;10473;42.734;24.258;2023-08-06T12:43:18;90828.34;;;27.66;46.36
20628;BME280;10473;42.734;24.258;2023-08-06T12:45:46;90820.69;;;27.53;46.39
20628;BME280;10473;42.734;24.258;2023-08-06T12:48:17;90835.03;;;27.59;44.82
20628;BME280;10473;42.734;24.258;2023-08-06T12:50:45;90840.72;;;27.56;46.34
20628;BME280;10473;42.734;24.258;2023-08-06T12:53:13;90833.03;;;27.16;46.15
20628;BME280;10473;42.734;24.258;2023-08-06T12:55:41;90830.06;;;26.97;46.08
20628;BME280;10473;42.734;24.258;2023-08-06T12:58:09;90825.38;;;27.03;46.46
20628;BME280;10473;42.734;24.258;2023-08-06T13:00:40;90845.41;;;27.11;46.07
20628;BME280;10473;42.734;24.258;2023-08-06T13:03:07;90848.13;;;27.11;46.20